Mitchell, Nebraska
Current Conditions -  °F | °C
As of 8:53 PM on Wednesday 22 Oct 2014 (Local Time) from KBFF Reporting Station
Clear Clear  
Wind Chill: 40°   Ceiling: Unl
Heat Index: 44°   Visibility: 10mi
Dew Point: 30°   Wind: 7mph
Humidity: 58%   Direction: 150°SSE
Pressure: 30.09"   Gusts: NA
Location:  41.94°N, 103.81°W
Report Text: KBFF 230253Z AUTO 15006KT 10SM CLR 07/M01 A3009 RMK AO2 SLP183 T00671011 51017
Loading
Personal Weather Stations






























Interactive Weather Map
Tropical Storm Tracking
New forecast layout! Learn more

10-Day Weather Forecast

Advertisements
Track Severe Weather on mobile